createdAt,value
2019-01-28T00:01:24.515Z,2.81
2019-01-28T00:03:54.992Z,2.77
2019-01-28T00:06:25.529Z,2.63
2019-01-28T00:08:55.720Z,2.65
2019-01-28T00:11:25.998Z,2.69
2019-01-28T00:13:56.222Z,2.76
2019-01-28T00:16:26.482Z,2.70
2019-01-28T00:18:56.721Z,2.64
2019-01-28T00:21:26.979Z,2.63
2019-01-28T00:23:57.564Z,2.60
2019-01-28T00:26:27.945Z,2.58
2019-01-28T00:28:58.171Z,2.57
2019-01-28T00:31:28.717Z,2.57
2019-01-28T00:33:59.003Z,2.65
2019-01-28T00:36:29.258Z,2.59
2019-01-28T00:38:59.509Z,2.60
2019-01-28T00:41:29.632Z,2.62
2019-01-28T00:43:59.764Z,2.53
2019-01-28T00:46:31.386Z,2.61
2019-01-28T00:49:01.692Z,2.48
2019-01-28T00:51:32.077Z,2.57
2019-01-28T00:54:02.229Z,2.47
2019-01-28T00:56:32.664Z,2.52
2019-01-28T00:59:02.895Z,2.43
2019-01-28T01:01:33.595Z,2.58
2019-01-28T01:04:03.996Z,2.57
2019-01-28T01:06:34.390Z,2.51
2019-01-28T01:09:07.462Z,2.55
2019-01-28T01:11:37.659Z,2.51
2019-01-28T01:14:07.825Z,2.50
2019-01-28T01:16:37.960Z,2.34
2019-01-28T01:19:08.229Z,2.37
2019-01-28T01:21:38.467Z,2.38
2019-01-28T01:24:08.807Z,2.45
2019-01-28T01:26:38.921Z,2.39
2019-01-28T01:29:10.130Z,2.42
2019-01-28T01:31:40.959Z,2.36
2019-01-28T01:34:11.262Z,2.35
2019-01-28T01:36:41.565Z,2.32
2019-01-28T01:39:11.697Z,2.40
2019-01-28T01:41:41.820Z,2.29
2019-01-28T01:44:12.037Z,2.29
2019-01-28T01:46:42.243Z,2.24
2019-01-28T01:49:12.532Z,2.26
2019-01-28T01:51:42.832Z,2.21
2019-01-28T01:54:13.004Z,2.13
2019-01-28T01:56:43.210Z,2.14
2019-01-28T01:59:13.439Z,2.11
2019-01-28T02:01:43.698Z,2.08
2019-01-28T02:04:13.826Z,2.11
2019-01-28T02:06:44.068Z,2.00
2019-01-28T02:09:14.345Z,2.01
2019-01-28T02:11:44.559Z,1.88
2019-01-28T02:14:14.699Z,1.74
2019-01-28T02:16:44.892Z,1.69
2019-01-28T02:19:15.121Z,1.53
2019-01-28T02:21:46.274Z,1.55
2019-01-28T02:24:17.069Z,1.48
2019-01-28T02:26:47.166Z,1.38
2019-01-28T02:29:17.388Z,1.29
2019-01-28T02:31:47.648Z,1.22
2019-01-28T02:34:17.861Z,1.20
2019-01-28T02:36:48.252Z,1.19
2019-01-28T02:39:18.355Z,1.15
2019-01-28T02:41:48.529Z,1.11
2019-01-28T02:44:18.784Z,1.08
2019-01-28T02:46:48.992Z,1.05
2019-01-28T02:49:19.335Z,1.08
2019-01-28T02:51:49.576Z,0.98
2019-01-28T02:54:20.091Z,0.95
2019-01-28T02:56:51.583Z,0.93
2019-01-28T02:59:21.807Z,0.90
2019-01-28T03:01:52.090Z,0.84
2019-01-28T03:04:22.383Z,0.86
2019-01-28T03:06:52.637Z,0.85
2019-01-28T03:09:22.793Z,0.85
2019-01-28T03:11:53.017Z,0.90
2019-01-28T03:14:23.324Z,0.86
2019-01-28T03:16:55.076Z,0.83
2019-01-28T03:19:25.396Z,0.77
2019-01-28T03:21:55.746Z,0.81
2019-01-28T03:24:25.893Z,0.73
2019-01-28T03:26:56.114Z,0.72
2019-01-28T03:29:29.991Z,0.70
2019-01-28T03:32:01.395Z,0.71
2019-01-28T03:34:31.534Z,0.68
2019-01-28T03:37:01.642Z,0.72
2019-01-28T03:39:32.941Z,0.78
2019-01-28T03:42:03.257Z,0.87
2019-01-28T03:44:33.560Z,0.93
2019-01-28T03:47:03.684Z,0.91
2019-01-28T03:49:33.936Z,1.00
2019-01-28T03:52:04.504Z,0.92
2019-01-28T03:54:35.102Z,0.87
2019-01-28T03:57:05.406Z,0.81
2019-01-28T03:59:35.619Z,0.76
2019-01-28T04:02:05.817Z,0.65
2019-01-28T04:04:36.042Z,0.66
2019-01-28T04:07:06.306Z,0.56
2019-01-28T04:09:36.446Z,0.49
2019-01-28T04:12:06.577Z,0.43
2019-01-28T04:14:36.766Z,0.40
2019-01-28T04:17:06.862Z,0.53
2019-01-28T04:19:37.025Z,0.50
2019-01-28T04:22:07.169Z,0.52
2019-01-28T04:24:37.492Z,0.54
2019-01-28T04:27:07.862Z,0.59
2019-01-28T04:29:38.085Z,0.70
2019-01-28T04:32:08.581Z,0.77
2019-01-28T04:34:39.033Z,0.84
2019-01-28T04:37:09.353Z,0.85
2019-01-28T04:39:39.653Z,0.84
2019-01-28T04:42:09.838Z,0.90
2019-01-28T04:44:39.985Z,0.96
2019-01-28T04:47:10.209Z,1.00
2019-01-28T04:49:40.455Z,1.00
2019-01-28T04:52:10.690Z,0.97
2019-01-28T04:54:40.928Z,0.89
2019-01-28T04:57:11.245Z,0.87
2019-01-28T04:59:41.709Z,0.85
2019-01-28T05:02:12.215Z,0.87
2019-01-28T05:04:42.572Z,0.90
2019-01-28T05:07:12.688Z,0.84
2019-01-28T05:09:42.882Z,0.84
2019-01-28T05:12:13.162Z,0.76
2019-01-28T05:14:43.388Z,0.66
2019-01-28T05:17:13.696Z,0.66
2019-01-28T05:19:44.014Z,0.69
2019-01-28T05:22:14.800Z,0.65
2019-01-28T05:24:45.143Z,0.65
2019-01-28T05:27:15.795Z,0.64
2019-01-28T05:29:46.361Z,0.65
2019-01-28T05:32:16.630Z,0.59
2019-01-28T05:34:46.953Z,0.59
2019-01-28T05:37:17.740Z,0.58
2019-01-28T05:39:48.340Z,0.60
2019-01-28T05:42:18.515Z,0.68
2019-01-28T05:44:50.139Z,0.69
2019-01-28T05:47:20.691Z,0.75
2019-01-28T05:49:51.122Z,0.70
2019-01-28T05:52:21.247Z,0.81
2019-01-28T05:54:51.542Z,0.80
2019-01-28T05:57:21.666Z,0.83
2019-01-28T05:59:51.959Z,0.86
2019-01-28T06:02:22.128Z,0.93
2019-01-28T06:04:52.722Z,0.94
2019-01-28T06:07:23.325Z,0.93
2019-01-28T06:09:53.522Z,0.96
2019-01-28T06:12:23.887Z,0.98
2019-01-28T06:14:54.448Z,1.01
2019-01-28T06:17:25.134Z,1.00
2019-01-28T06:19:55.368Z,0.97
2019-01-28T06:22:25.793Z,0.95
2019-01-28T06:24:56.268Z,0.96
2019-01-28T06:27:26.810Z,0.94
2019-01-28T06:29:57.131Z,0.91
2019-01-28T06:32:27.270Z,0.92
2019-01-28T06:34:57.468Z,0.92
2019-01-28T06:37:27.636Z,0.92
2019-01-28T06:39:57.971Z,0.89
2019-01-28T06:42:28.131Z,0.93
2019-01-28T06:44:58.419Z,0.90
2019-01-28T06:47:28.601Z,0.89
2019-01-28T06:49:58.968Z,0.91
2019-01-28T06:52:29.483Z,0.90
2019-01-28T06:55:00.025Z,0.89
2019-01-28T06:57:30.411Z,0.92
2019-01-28T07:00:00.573Z,0.98
2019-01-28T07:02:30.703Z,1.01
2019-01-28T07:05:01.027Z,1.02
2019-01-28T07:07:31.275Z,1.04
2019-01-28T07:10:01.581Z,1.17
2019-01-28T07:12:32.014Z,1.20
2019-01-28T07:15:02.623Z,1.29
2019-01-28T07:17:32.798Z,1.38
2019-01-28T07:20:03.118Z,1.47
2019-01-28T07:22:33.242Z,1.53
2019-01-28T07:25:03.512Z,1.67
2019-01-28T07:27:33.742Z,1.67
2019-01-28T07:30:07.398Z,1.72
2019-01-28T07:32:37.671Z,1.83
2019-01-28T07:35:08.357Z,1.97
2019-01-28T07:37:39.200Z,2.02
2019-01-28T07:40:12.241Z,2.01
2019-01-28T07:42:42.551Z,2.03
2019-01-28T07:45:16.615Z,1.97
2019-01-28T07:47:46.951Z,1.90
2019-01-28T07:50:17.117Z,1.95
2019-01-28T07:52:47.341Z,1.88
2019-01-28T07:55:17.501Z,1.94
2019-01-28T07:57:47.706Z,1.96
2019-01-28T08:00:20.695Z,1.97
2019-01-28T08:10:21.649Z,2.26
2019-01-28T08:12:51.987Z,2.21
2019-01-28T08:15:23.720Z,2.21
2019-01-28T08:17:53.985Z,2.25
2019-01-28T08:20:24.482Z,2.35
2019-01-28T08:22:56.327Z,2.54
2019-01-28T08:25:26.908Z,2.72
2019-01-28T08:27:57.611Z,2.99
2019-01-28T08:30:38.562Z,3.38
2019-01-28T08:33:08.851Z,3.84
2019-01-28T08:35:42.346Z,4.39
2019-01-28T08:38:12.978Z,4.59
2019-01-28T08:40:43.461Z,5.20
2019-01-28T08:43:14.707Z,5.85
2019-01-28T08:45:46.653Z,6.50
2019-01-28T08:48:18.433Z,6.76
2019-01-28T08:50:49.068Z,7.17
2019-01-28T08:53:19.297Z,7.07
2019-01-28T08:55:49.699Z,7.43
2019-01-28T08:58:19.913Z,7.39
2019-01-28T09:00:50.552Z,7.32
2019-01-28T09:03:20.873Z,6.89
2019-01-28T09:05:51.178Z,6.48
2019-01-28T09:08:21.563Z,6.04
2019-01-28T09:10:52.212Z,6.48
2019-01-28T09:13:22.628Z,7.14
2019-01-28T09:15:52.899Z,7.35
2019-01-28T09:18:26.403Z,7.86
2019-01-28T09:20:55.530Z,8.74
2019-01-28T09:23:25.661Z,9.61
2019-01-28T09:25:55.993Z,9.34
2019-01-28T09:28:26.558Z,8.97
2019-01-28T09:30:57.423Z,7.92
2019-01-28T09:33:28.276Z,7.18
2019-01-28T09:35:59.169Z,7.37
2019-01-28T09:38:29.767Z,7.49
2019-01-28T09:41:00.197Z,7.65
2019-01-28T09:43:30.936Z,7.66
2019-01-28T09:46:01.487Z,7.61
2019-01-28T09:48:34.393Z,7.36
2019-01-28T09:51:06.913Z,6.80
2019-01-28T09:53:37.397Z,6.73
2019-01-28T09:56:07.856Z,6.47
2019-01-28T09:58:38.554Z,6.66
2019-01-28T10:01:09.053Z,5.71
2019-01-28T10:03:39.693Z,6.06
2019-01-28T10:06:11.373Z,6.14
2019-01-28T10:08:41.722Z,6.13
2019-01-28T10:11:12.200Z,6.08
2019-01-28T10:13:42.502Z,6.08
2019-01-28T10:16:13.091Z,6.33
2019-01-28T10:18:43.709Z,6.16
2019-01-28T10:21:14.485Z,6.10
2019-01-28T10:23:44.983Z,6.09
2019-01-28T10:26:15.713Z,6.19
2019-01-28T10:28:46.440Z,5.75
2019-01-28T10:31:17.155Z,5.42
2019-01-28T10:33:47.934Z,5.38
2019-01-28T10:36:22.654Z,5.05
2019-01-28T10:38:51.847Z,4.95
2019-01-28T10:41:23.442Z,5.10
2019-01-28T10:43:54.303Z,5.16
2019-01-28T10:46:24.836Z,4.74
2019-01-28T10:48:56.026Z,4.78
2019-01-28T10:51:27.757Z,4.90
2019-01-28T10:53:58.207Z,4.70
2019-01-28T10:56:28.827Z,5.11
2019-01-28T10:58:59.407Z,4.94
2019-01-28T11:01:30.413Z,4.86
2019-01-28T11:04:00.976Z,5.00
2019-01-28T11:06:31.996Z,4.46
2019-01-28T11:09:02.489Z,4.59
2019-01-28T11:11:33.232Z,4.48
2019-01-28T11:14:03.738Z,4.33
2019-01-28T11:16:34.273Z,4.31
2019-01-28T11:19:04.960Z,4.16
2019-01-28T11:21:35.072Z,4.39
2019-01-28T11:24:05.723Z,4.68
2019-01-28T11:26:37.449Z,4.82
2019-01-28T11:29:07.967Z,5.01
2019-01-28T11:31:38.418Z,5.27
2019-01-28T11:34:12.783Z,5.12
2019-01-28T11:36:43.192Z,5.10
2019-01-28T11:39:14.023Z,4.61
2019-01-28T11:41:44.371Z,4.84
2019-01-28T11:44:15.434Z,4.83
2019-01-28T11:46:48.192Z,4.51
2019-01-28T11:49:24.014Z,4.54
2019-01-28T11:51:54.097Z,4.91
2019-01-28T11:54:24.389Z,4.91
2019-01-28T11:56:54.667Z,5.19
2019-01-28T11:59:25.203Z,5.16
2019-01-28T12:01:55.704Z,5.17
2019-01-28T12:04:26.043Z,4.88
2019-01-28T12:06:58.168Z,4.74
2019-01-28T12:09:28.420Z,4.69
2019-01-28T12:11:58.813Z,4.41
2019-01-28T12:14:29.547Z,4.61
2019-01-28T12:16:59.905Z,4.40
2019-01-28T12:19:30.212Z,4.56
2019-01-28T12:22:00.548Z,4.41
2019-01-28T12:24:31.048Z,4.56
2019-01-28T12:27:01.559Z,4.62
2019-01-28T12:29:32.000Z,4.70
2019-01-28T12:32:02.335Z,4.98
2019-01-28T12:34:33.037Z,4.93
2019-01-28T12:37:03.518Z,4.74
2019-01-28T12:39:37.374Z,4.75
2019-01-28T12:42:10.352Z,4.82
2019-01-28T12:44:40.938Z,4.73
2019-01-28T12:47:11.229Z,4.30
2019-01-28T12:49:41.549Z,4.26
2019-01-28T12:52:12.068Z,4.26
2019-01-28T12:54:42.528Z,4.00
2019-01-28T12:57:12.827Z,4.05
2019-01-28T12:59:43.146Z,4.15
2019-01-28T13:02:13.304Z,3.98
2019-01-28T13:04:43.714Z,4.00
2019-01-28T13:07:14.449Z,4.00
2019-01-28T13:09:45.006Z,3.93
2019-01-28T13:12:15.828Z,3.86
2019-01-28T13:14:46.172Z,3.64
2019-01-28T13:17:16.672Z,3.92
2019-01-28T13:19:47.230Z,4.00
2019-01-28T13:22:17.559Z,3.87
2019-01-28T13:24:47.932Z,3.84
2019-01-28T13:27:19.010Z,3.80
2019-01-28T13:29:49.522Z,3.70
2019-01-28T13:32:20.273Z,3.83
2019-01-28T13:34:51.428Z,3.69
2019-01-28T13:37:22.095Z,3.59
2019-01-28T13:39:52.729Z,3.58
2019-01-28T13:42:23.149Z,3.75
2019-01-28T13:44:53.634Z,3.55
2019-01-28T13:47:23.923Z,3.48
2019-01-28T13:49:54.743Z,3.38
2019-01-28T13:52:25.219Z,3.31
2019-01-28T13:54:55.643Z,3.34
2019-01-28T13:57:26.528Z,3.46
2019-01-28T13:59:57.451Z,3.31
2019-01-28T14:02:27.870Z,3.34
2019-01-28T14:04:58.574Z,3.13
2019-01-28T14:07:29.200Z,3.16
2019-01-28T14:10:00.997Z,3.13
2019-01-28T14:12:31.538Z,3.06
2019-01-28T14:15:01.865Z,3.02
2019-01-28T14:17:32.969Z,3.14
2019-01-28T14:20:04.816Z,3.09
2019-01-28T14:22:35.374Z,3.08
2019-01-28T14:25:06.939Z,2.96
2019-01-28T14:27:37.404Z,3.12
2019-01-28T14:30:10.617Z,3.06
2019-01-28T14:32:40.889Z,2.97
2019-01-28T14:35:11.134Z,2.96
2019-01-28T14:37:41.350Z,3.07
2019-01-28T14:40:14.098Z,3.01
2019-01-28T14:42:44.540Z,2.88
2019-01-28T14:45:14.794Z,2.81
2019-01-28T14:47:45.083Z,2.89
2019-01-28T14:50:19.114Z,2.94
2019-01-28T14:52:49.353Z,2.81
2019-01-28T14:55:20.070Z,2.79
2019-01-28T14:57:50.474Z,2.69
2019-01-28T15:00:32.503Z,2.69
2019-01-28T15:03:02.712Z,2.62
2019-01-28T15:18:41.056Z,2.68
2019-01-28T15:29:51.062Z,2.39
2019-01-28T15:32:22.338Z,2.49
2019-01-28T15:34:52.964Z,2.37
2019-01-28T15:37:23.542Z,2.48
2019-01-28T15:39:53.784Z,2.38
2019-01-28T15:42:25.152Z,2.31
2019-01-28T15:44:55.538Z,2.31
2019-01-28T15:47:26.244Z,2.34
2019-01-28T15:49:56.465Z,2.34
2019-01-28T15:52:27.724Z,2.19
2019-01-28T15:54:58.013Z,2.23
2019-01-28T15:57:28.659Z,2.05
2019-01-28T15:59:59.212Z,2.16
2019-01-28T16:02:29.484Z,2.16
2019-01-28T16:05:04.463Z,2.09
2019-01-28T16:07:35.029Z,2.10
2019-01-28T16:10:07.102Z,1.98
2019-01-28T16:12:37.693Z,2.08
2019-01-28T16:15:12.936Z,2.00
2019-01-28T16:17:43.463Z,1.97
2019-01-28T16:20:18.511Z,1.97
2019-01-28T16:22:45.805Z,2.01
2019-01-28T16:25:16.390Z,1.92
2019-01-28T16:27:46.953Z,1.99
2019-01-28T16:30:26.083Z,1.90
2019-01-28T16:32:55.025Z,1.97
2019-01-28T16:35:25.585Z,1.96
2019-01-28T16:37:56.373Z,2.00
2019-01-28T16:40:26.990Z,1.97
2019-01-28T16:42:57.876Z,1.89
2019-01-28T16:45:28.400Z,1.92
2019-01-28T16:47:58.966Z,1.86
2019-01-28T16:50:31.149Z,1.90
2019-01-28T16:53:01.603Z,1.94
2019-01-28T16:55:32.130Z,1.84
2019-01-28T16:58:03.048Z,1.90
2019-01-28T17:00:35.884Z,1.83
2019-01-28T17:03:07.622Z,1.87
2019-01-28T17:05:38.483Z,1.83
2019-01-28T17:08:08.888Z,1.84
2019-01-28T17:10:39.497Z,1.84
2019-01-28T17:13:11.041Z,1.86
2019-01-28T17:15:41.261Z,1.90
2019-01-28T17:18:11.685Z,1.89
2019-01-28T17:20:41.924Z,1.89
2019-01-28T17:23:12.394Z,1.92
2019-01-28T17:25:47.688Z,1.96
2019-01-28T17:28:18.179Z,1.93
2019-01-28T17:30:50.383Z,1.88
2019-01-28T17:33:20.664Z,1.91
2019-01-28T17:35:51.389Z,1.86
2019-01-28T17:38:21.914Z,1.89
2019-01-28T17:40:52.149Z,1.94
2019-01-28T17:43:22.817Z,1.87
2019-01-28T17:45:53.260Z,1.92
2019-01-28T17:48:23.742Z,1.96
2019-01-28T17:50:58.402Z,1.96
2019-01-28T17:53:31.832Z,1.99
2019-01-28T17:56:02.629Z,1.93
2019-01-28T17:58:33.122Z,1.89
2019-01-28T18:01:03.562Z,1.90
2019-01-28T18:03:33.714Z,1.80
2019-01-28T18:06:04.399Z,1.82
2019-01-28T18:08:34.909Z,1.87
2019-01-28T18:11:05.989Z,1.87
2019-01-28T18:13:36.239Z,1.76
2019-01-28T18:16:07.102Z,1.76
2019-01-28T18:18:37.716Z,1.79
2019-01-28T18:21:07.954Z,1.79
2019-01-28T18:23:49.412Z,1.79
2019-01-28T18:26:21.045Z,1.81
2019-01-28T18:28:51.727Z,1.84
2019-01-28T18:31:22.109Z,1.87
2019-01-28T18:33:52.472Z,1.86
2019-01-28T18:36:22.725Z,1.87
2019-01-28T18:38:53.018Z,1.77
2019-01-28T18:41:23.240Z,1.86
2019-01-28T18:43:55.326Z,1.84
2019-01-28T18:46:26.163Z,1.67
2019-01-28T18:48:56.705Z,1.64
2019-01-28T18:51:27.044Z,1.67
2019-01-28T18:53:57.831Z,1.67
2019-01-28T18:56:28.148Z,1.62
2019-01-28T18:58:58.513Z,1.61
2019-01-28T19:01:29.315Z,1.64
2019-01-28T19:04:01.660Z,1.66
2019-01-28T19:06:47.537Z,1.62
2019-01-28T19:09:29.313Z,1.73
2019-01-28T19:12:12.135Z,1.67
2019-01-28T19:15:07.463Z,1.73
2019-01-28T19:17:56.454Z,1.74
2019-01-28T19:20:44.932Z,1.71
2019-01-28T19:23:15.496Z,1.72
2019-01-28T19:25:45.914Z,1.76
2019-01-28T19:28:16.455Z,1.74
2019-01-28T19:30:46.854Z,1.73
2019-01-28T19:33:17.534Z,1.72
2019-01-28T19:35:48.374Z,1.62
2019-01-28T19:38:18.987Z,1.60
2019-01-28T19:40:49.807Z,1.60
2019-01-28T19:43:20.679Z,1.55
2019-01-28T19:45:51.421Z,1.50
2019-01-28T19:48:21.941Z,1.53
2019-01-28T19:50:54.041Z,1.46
2019-01-28T19:53:24.850Z,1.50
2019-01-28T19:55:55.631Z,1.46
2019-01-28T19:58:26.135Z,1.51
2019-01-28T20:00:56.627Z,1.53
2019-01-28T20:03:27.286Z,1.53
2019-01-28T20:05:57.674Z,1.55
2019-01-28T20:08:28.021Z,1.54
2019-01-28T20:10:59.932Z,1.60
2019-01-28T20:13:30.374Z,1.60
2019-01-28T20:16:01.008Z,1.63
2019-01-28T20:18:32.355Z,1.63
2019-01-28T20:21:05.071Z,1.59
2019-01-28T20:23:35.762Z,1.57
2019-01-28T20:26:06.203Z,1.51
2019-01-28T20:28:36.457Z,1.56
2019-01-28T20:31:06.988Z,1.51
2019-01-28T20:33:37.490Z,1.44
2019-01-28T20:36:08.448Z,1.47
2019-01-28T20:38:38.955Z,1.45
2019-01-28T20:41:09.468Z,1.42
2019-01-28T20:43:40.329Z,1.34
2019-01-28T20:46:11.880Z,1.37
2019-01-28T20:48:42.599Z,1.36
2019-01-28T20:51:13.114Z,1.38
2019-01-28T20:53:43.653Z,1.32
2019-01-28T20:56:14.269Z,1.28
2019-01-28T20:58:47.431Z,1.29
2019-01-28T21:01:16.659Z,1.20
2019-01-28T21:03:48.089Z,1.23
2019-01-28T21:06:18.964Z,1.19
2019-01-28T21:08:49.307Z,1.24
2019-01-28T21:11:20.050Z,1.21
2019-01-28T21:13:50.650Z,1.14
2019-01-28T21:16:21.285Z,1.17
2019-01-28T21:18:51.997Z,1.17
2019-01-28T21:21:23.028Z,1.17
2019-01-28T21:23:53.390Z,1.05
2019-01-28T21:26:23.826Z,1.22
2019-01-28T21:28:54.229Z,1.21
2019-01-28T21:31:24.711Z,1.17
2019-01-28T21:33:55.041Z,1.17
2019-01-28T21:36:40.440Z,1.19
2019-01-28T21:39:15.485Z,1.11
2019-01-28T21:41:46.050Z,1.05
2019-01-28T21:44:17.016Z,0.99
2019-01-28T21:46:47.332Z,0.89
2019-01-28T21:49:17.777Z,0.83
2019-01-28T21:51:50.686Z,0.85
2019-01-28T21:54:19.974Z,0.69
2019-01-28T21:56:50.232Z,0.65
2019-01-28T21:59:20.498Z,0.53
2019-01-28T22:01:50.862Z,0.48
2019-01-28T22:04:21.229Z,0.55
2019-01-28T22:06:51.810Z,0.64
2019-01-28T22:09:22.000Z,0.74
2019-01-28T22:11:52.490Z,0.83
2019-01-28T22:14:22.901Z,0.91
2019-01-28T22:16:53.569Z,0.92
2019-01-28T22:19:23.886Z,0.98
2019-01-28T22:21:59.027Z,1.00
2019-01-28T22:24:26.078Z,1.02
2019-01-28T22:26:56.521Z,1.05
2019-01-28T22:29:26.863Z,1.05
2019-01-28T22:31:57.183Z,1.06
2019-01-28T22:34:27.434Z,1.08
2019-01-28T22:36:58.105Z,1.16
2019-01-28T22:39:28.393Z,1.19
2019-01-28T22:41:58.869Z,1.21
2019-01-28T22:44:29.192Z,1.24
2019-01-28T22:46:59.843Z,1.20
2019-01-28T22:49:30.077Z,1.13
2019-01-28T22:52:07.716Z,0.99
2019-01-28T22:54:32.451Z,0.91
2019-01-28T22:57:02.845Z,0.81
2019-01-28T22:59:33.158Z,0.79
2019-01-28T23:02:03.751Z,0.70
2019-01-28T23:04:34.222Z,0.63
2019-01-28T23:07:04.645Z,0.58
2019-01-28T23:09:34.878Z,0.49
2019-01-28T23:12:05.495Z,0.44
2019-01-28T23:14:35.944Z,0.33
2019-01-28T23:17:06.290Z,0.25
2019-01-28T23:19:36.402Z,0.19
2019-01-28T23:22:06.893Z,0.17
2019-01-28T23:24:37.024Z,0.11
2019-01-28T23:27:07.135Z,0.03
2019-01-28T23:29:37.381Z,-0.08
2019-01-28T23:32:07.754Z,-0.12
2019-01-28T23:34:38.237Z,-0.14
2019-01-28T23:37:08.672Z,-0.17
2019-01-28T23:39:38.970Z,-0.15
2019-01-28T23:42:09.499Z,-0.21
2019-01-28T23:44:40.280Z,-0.25
2019-01-28T23:47:10.602Z,-0.27
2019-01-28T23:49:40.709Z,-0.34
2019-01-28T23:52:11.167Z,-0.44
2019-01-28T23:54:41.328Z,-0.46
2019-01-28T23:57:11.564Z,-0.49
2019-01-28T23:59:41.730Z,-0.52
